createdAt,value
2023-04-24T00:00:07.944Z,85.25
2023-04-24T00:01:10.375Z,85.09
2023-04-24T00:02:12.382Z,84.92
2023-04-24T00:03:14.558Z,84.84
2023-04-24T00:04:18.213Z,84.92
2023-04-24T00:05:20.184Z,84.90
2023-04-24T00:06:22.068Z,85.03
2023-04-24T00:07:24.023Z,84.78
2023-04-24T00:08:25.936Z,84.40
2023-04-24T00:09:27.741Z,84.32
2023-04-24T00:10:29.657Z,84.52
2023-04-24T00:11:31.469Z,84.55
2023-04-24T00:12:33.206Z,83.99
2023-04-24T00:13:35.056Z,84.21
2023-04-24T00:14:36.875Z,83.87
2023-04-24T00:15:38.681Z,84.19
2023-04-24T00:16:40.591Z,84.37
2023-04-24T00:17:42.595Z,84.55
2023-04-24T00:18:46.457Z,84.76
2023-04-24T00:19:52.377Z,85.17
2023-04-24T00:20:54.219Z,85.15
2023-04-24T00:21:56.594Z,85.58
2023-04-24T00:22:58.483Z,85.43
2023-04-24T00:24:00.438Z,85.28
2023-04-24T00:25:02.319Z,85.53
2023-04-24T00:26:04.166Z,85.43
2023-04-24T00:27:06.173Z,85.42
2023-04-24T00:28:08.016Z,85.42
2023-04-24T00:29:09.744Z,85.38
2023-04-24T00:30:11.718Z,85.36
2023-04-24T00:31:13.704Z,85.46
2023-04-24T00:32:16.840Z,85.14
2023-04-24T00:33:18.723Z,84.95
2023-04-24T00:34:21.777Z,85.39
2023-04-24T00:35:24.509Z,85.60
2023-04-24T00:36:26.610Z,85.88
2023-04-24T00:37:28.473Z,86.65
2023-04-24T00:38:30.360Z,87.07
2023-04-24T00:39:32.342Z,86.93
2023-04-24T00:40:34.257Z,86.62
2023-04-24T00:41:36.487Z,86.15
2023-04-24T00:42:38.471Z,86.28
2023-04-24T00:43:40.766Z,87.08
2023-04-24T00:44:42.675Z,87.11
2023-04-24T00:45:44.578Z,86.87
2023-04-24T00:46:47.344Z,86.26
2023-04-24T00:47:49.702Z,86.30
2023-04-24T00:48:52.010Z,86.63
2023-04-24T00:49:53.860Z,86.66
2023-04-24T00:50:55.868Z,86.52
2023-04-24T00:51:58.077Z,86.21
2023-04-24T00:52:59.902Z,86.30
2023-04-24T00:54:02.449Z,86.75
2023-04-24T00:55:04.573Z,86.99
2023-04-24T00:56:07.038Z,86.90
2023-04-24T00:57:08.836Z,86.35
2023-04-24T00:58:10.880Z,86.38
2023-04-24T00:59:13.451Z,86.04
2023-04-24T01:00:16.233Z,85.92
2023-04-24T01:01:19.483Z,86.04
2023-04-24T01:02:22.473Z,86.49
2023-04-24T01:03:30.214Z,86.88
2023-04-24T01:04:32.214Z,87.21
2023-04-24T01:05:34.679Z,87.09
2023-04-24T01:06:39.477Z,87.39
2023-04-24T01:07:45.187Z,87.08
2023-04-24T01:08:47.862Z,86.86
2023-04-24T01:09:52.352Z,86.88
2023-04-24T01:10:55.756Z,86.91
2023-04-24T01:11:57.841Z,87.00
2023-04-24T01:12:59.726Z,87.61
2023-04-24T01:14:01.641Z,87.58
2023-04-24T01:15:05.112Z,87.25
2023-04-24T01:16:06.960Z,86.93
2023-04-24T01:17:10.438Z,86.72
2023-04-24T01:18:12.441Z,87.11
2023-04-24T01:19:15.388Z,86.84
2023-04-24T01:20:17.975Z,87.02
2023-04-24T01:21:22.644Z,87.03
2023-04-24T01:22:24.493Z,86.64
2023-04-24T01:23:26.940Z,86.54
2023-04-24T01:24:29.956Z,86.13
2023-04-24T01:25:31.789Z,86.24
2023-04-24T01:26:33.833Z,85.51
2023-04-24T01:27:35.751Z,85.57
2023-04-24T01:28:38.254Z,85.84
2023-04-24T01:29:40.252Z,86.24
2023-04-24T01:30:42.621Z,86.98
2023-04-24T01:31:44.821Z,87.35
2023-04-24T01:32:47.016Z,87.52
2023-04-24T01:33:49.004Z,87.72
2023-04-24T01:34:52.017Z,87.69
2023-04-24T01:35:54.014Z,87.71
2023-04-24T01:36:58.827Z,87.67
2023-04-24T01:38:00.737Z,88.23
2023-04-24T01:39:02.497Z,88.31
2023-04-24T01:40:06.068Z,88.85
2023-04-24T01:41:08.017Z,88.69
2023-04-24T01:42:09.934Z,88.86
2023-04-24T01:43:12.537Z,89.19
2023-04-24T01:44:14.436Z,88.99
2023-04-24T01:45:16.373Z,89.00
2023-04-24T01:46:18.240Z,89.34
2023-04-24T01:47:20.182Z,88.78
2023-04-24T01:48:22.084Z,88.49
2023-04-24T01:49:23.857Z,88.45
2023-04-24T01:50:25.780Z,87.79
2023-04-24T01:51:28.169Z,87.85
2023-04-24T01:52:32.429Z,87.68
2023-04-24T01:53:34.393Z,87.95
2023-04-24T01:54:36.402Z,88.65
2023-04-24T01:55:38.222Z,88.72
2023-04-24T01:56:46.182Z,88.45
2023-04-24T01:57:48.162Z,89.31
2023-04-24T01:58:51.672Z,89.84
2023-04-24T01:59:53.463Z,90.00
2023-04-24T02:00:57.559Z,89.73
2023-04-24T02:01:59.457Z,89.99
2023-04-24T02:03:03.302Z,89.85
2023-04-24T02:04:06.503Z,89.87
2023-04-24T02:05:08.966Z,89.81
2023-04-24T02:06:10.849Z,89.90
2023-04-24T02:07:12.622Z,89.81
2023-04-24T02:08:14.524Z,89.83
2023-04-24T02:09:16.296Z,89.78
2023-04-24T02:10:18.104Z,89.24
2023-04-24T02:11:20.025Z,89.56
2023-04-24T02:12:21.969Z,89.63
2023-04-24T02:13:23.870Z,89.34
2023-04-24T02:14:25.724Z,88.93
2023-04-24T02:15:27.478Z,88.77
2023-04-24T02:16:33.492Z,89.04
2023-04-24T02:17:35.255Z,89.17
2023-04-24T02:18:37.964Z,89.24
2023-04-24T02:19:40.567Z,89.04
2023-04-24T02:20:43.026Z,89.27
2023-04-24T02:21:44.928Z,88.96
2023-04-24T02:22:46.768Z,89.15
2023-04-24T02:23:48.546Z,88.97
2023-04-24T02:24:50.585Z,89.11
2023-04-24T02:25:54.592Z,89.49
2023-04-24T02:26:56.986Z,89.62
2023-04-24T02:27:58.838Z,89.19
2023-04-24T02:29:01.009Z,89.46
2023-04-24T02:30:03.913Z,89.50
2023-04-24T02:31:06.493Z,89.38
2023-04-24T02:32:08.338Z,89.55
2023-04-24T02:33:10.155Z,89.34
2023-04-24T02:34:12.031Z,88.86
2023-04-24T02:35:14.981Z,88.93
2023-04-24T02:36:16.910Z,89.28
2023-04-24T02:37:18.704Z,89.10
2023-04-24T02:38:20.519Z,88.57
2023-04-24T02:39:22.279Z,88.62
2023-04-24T02:40:24.892Z,88.61
2023-04-24T02:41:32.491Z,88.78
2023-04-24T02:42:34.719Z,89.34
2023-04-24T02:43:36.641Z,89.11
2023-04-24T02:44:38.439Z,89.15
2023-04-24T02:45:40.501Z,88.96
2023-04-24T02:46:43.231Z,88.58
2023-04-24T02:47:45.112Z,88.84
2023-04-24T02:48:46.930Z,88.94
2023-04-24T02:49:48.723Z,89.05
2023-04-24T02:50:51.866Z,88.86
2023-04-24T02:51:53.669Z,88.69
2023-04-24T02:52:55.633Z,89.18
2023-04-24T02:53:57.424Z,89.15
2023-04-24T02:54:59.185Z,89.13
2023-04-24T02:56:01.956Z,89.53
2023-04-24T02:57:03.863Z,89.42
2023-04-24T02:58:05.694Z,89.58
2023-04-24T02:59:07.605Z,89.78
2023-04-24T03:00:10.392Z,89.88
2023-04-24T03:01:12.192Z,90.63
2023-04-24T03:02:14.034Z,90.84
2023-04-24T03:03:16.491Z,91.38
2023-04-24T03:04:21.640Z,91.26
2023-04-24T03:05:23.629Z,91.39
2023-04-24T03:06:25.497Z,91.32
2023-04-24T03:07:27.708Z,91.57
2023-04-24T03:08:29.498Z,91.94
2023-04-24T03:09:31.313Z,91.91
2023-04-24T03:10:33.500Z,91.78
2023-04-24T03:11:35.421Z,91.79
2023-04-24T03:12:37.260Z,91.36
2023-04-24T03:13:38.983Z,91.50
2023-04-24T03:14:40.811Z,91.33
2023-04-24T03:15:42.683Z,91.67
2023-04-24T03:16:44.576Z,91.88
2023-04-24T03:17:46.560Z,92.04
2023-04-24T03:18:48.484Z,92.09
2023-04-24T03:19:50.290Z,92.56
2023-04-24T03:20:52.148Z,92.11
2023-04-24T03:21:54.997Z,91.99
2023-04-24T03:22:58.591Z,92.17
2023-04-24T03:24:00.489Z,92.07
2023-04-24T03:25:02.470Z,91.83
2023-04-24T03:26:04.318Z,92.03
2023-04-24T03:27:06.332Z,91.93
2023-04-24T03:28:08.146Z,91.78
2023-04-24T03:29:09.948Z,91.43
2023-04-24T03:30:12.003Z,91.08
2023-04-24T03:31:13.934Z,91.02
2023-04-24T03:32:15.821Z,90.49
2023-04-24T03:33:17.579Z,90.48
2023-04-24T03:34:19.301Z,90.38
2023-04-24T03:35:22.541Z,90.01
2023-04-24T03:36:24.407Z,90.68
2023-04-24T03:37:27.764Z,90.36
2023-04-24T03:38:29.596Z,90.21
2023-04-24T03:39:31.389Z,90.12
2023-04-24T03:40:34.913Z,90.39
2023-04-24T03:41:36.736Z,90.49
2023-04-24T03:42:39.423Z,90.54
2023-04-24T03:43:41.443Z,90.76
2023-04-24T03:44:43.258Z,90.89
2023-04-24T03:45:45.065Z,91.09
2023-04-24T03:46:46.867Z,90.90
2023-04-24T03:47:48.812Z,91.18
2023-04-24T03:48:50.899Z,91.36
2023-04-24T03:49:53.455Z,91.10
2023-04-24T03:50:55.224Z,91.42
2023-04-24T03:51:56.991Z,91.35
2023-04-24T03:52:59.148Z,91.80
2023-04-24T03:54:00.909Z,91.58
2023-04-24T03:55:02.802Z,91.67
2023-04-24T03:56:04.676Z,91.24
2023-04-24T03:57:06.537Z,91.49
2023-04-24T03:58:08.411Z,91.46
2023-04-24T03:59:10.180Z,90.90
2023-04-24T04:00:12.377Z,90.65
2023-04-24T04:01:14.535Z,90.64
2023-04-24T04:02:16.362Z,90.82
2023-04-24T04:03:19.303Z,90.72
2023-04-24T04:04:21.360Z,90.84
2023-04-24T04:05:23.423Z,90.55
2023-04-24T04:06:25.337Z,90.39
2023-04-24T04:07:27.281Z,89.94
2023-04-24T04:08:30.050Z,90.31
2023-04-24T04:09:32.234Z,90.78
2023-04-24T04:10:33.973Z,90.30
2023-04-24T04:11:36.654Z,90.85
2023-04-24T04:12:38.532Z,91.08
2023-04-24T04:13:40.491Z,91.25
2023-04-24T04:14:42.251Z,90.82
2023-04-24T04:15:44.015Z,91.15
2023-04-24T04:16:45.846Z,90.72
2023-04-24T04:17:48.173Z,90.70
2023-04-24T04:18:51.067Z,90.55
2023-04-24T04:19:52.887Z,90.21
2023-04-24T04:20:54.764Z,90.41
2023-04-24T04:21:57.398Z,90.24
2023-04-24T04:22:59.253Z,90.55
2023-04-24T04:24:01.452Z,91.12
2023-04-24T04:25:03.655Z,91.56
2023-04-24T04:26:06.298Z,91.08
2023-04-24T04:27:08.156Z,91.43
2023-04-24T04:28:09.925Z,91.61
2023-04-24T04:29:12.393Z,91.27
2023-04-24T04:30:14.201Z,90.86
2023-04-24T04:31:16.100Z,90.71
2023-04-24T04:32:18.018Z,90.86
2023-04-24T04:33:20.248Z,91.34
2023-04-24T04:34:22.415Z,91.38
2023-04-24T04:35:24.453Z,91.43
2023-04-24T04:36:27.250Z,90.98
2023-04-24T04:37:29.859Z,91.19
2023-04-24T04:38:31.773Z,90.92
2023-04-24T04:39:33.621Z,90.82
2023-04-24T04:40:35.353Z,90.44
2023-04-24T04:41:37.136Z,90.37
2023-04-24T04:42:41.599Z,90.28
2023-04-24T04:43:43.986Z,89.84
2023-04-24T04:44:46.793Z,89.52
2023-04-24T04:45:49.796Z,89.70
2023-04-24T04:46:54.176Z,90.38
2023-04-24T04:47:56.476Z,90.61
2023-04-24T04:48:58.655Z,90.83
2023-04-24T04:50:01.057Z,90.81
2023-04-24T04:51:02.863Z,91.32
2023-04-24T04:52:04.715Z,91.81
2023-04-24T04:53:07.213Z,91.87
2023-04-24T04:54:08.971Z,91.38
2023-04-24T04:55:10.825Z,91.27
2023-04-24T04:56:12.699Z,91.01
2023-04-24T04:57:14.567Z,90.71
2023-04-24T04:58:16.397Z,90.60
2023-04-24T04:59:18.225Z,90.92
2023-04-24T05:00:20.443Z,91.27
2023-04-24T05:01:24.324Z,91.58
2023-04-24T05:02:26.219Z,91.85
2023-04-24T05:03:28.121Z,91.70
2023-04-24T05:04:30.385Z,92.26
2023-04-24T05:05:32.491Z,92.27
2023-04-24T05:06:34.455Z,92.22
2023-04-24T05:07:36.314Z,92.56
2023-04-24T05:08:38.115Z,92.44
2023-04-24T05:09:39.938Z,92.25
2023-04-24T05:10:41.768Z,91.83
2023-04-24T05:11:43.571Z,92.04
2023-04-24T05:12:46.490Z,91.91
2023-04-24T05:13:48.500Z,91.48
2023-04-24T05:14:50.352Z,91.16
2023-04-24T05:15:52.367Z,91.46
2023-04-24T05:16:54.315Z,91.28
2023-04-24T05:17:57.492Z,91.33
2023-04-24T05:18:59.888Z,91.02
2023-04-24T05:20:02.377Z,91.19
2023-04-24T05:21:04.224Z,91.32
2023-04-24T05:22:07.954Z,91.01
2023-04-24T05:23:09.938Z,90.77
2023-04-24T05:24:11.736Z,90.81
2023-04-24T05:25:13.722Z,90.82
2023-04-24T05:26:16.679Z,91.44
2023-04-24T05:27:18.575Z,91.82
2023-04-24T05:28:21.213Z,92.08
2023-04-24T05:29:23.098Z,91.99
2023-04-24T05:30:24.959Z,92.49
2023-04-24T05:31:26.877Z,92.70
2023-04-24T05:32:28.837Z,92.68
2023-04-24T05:33:30.667Z,92.90
2023-04-24T05:34:32.749Z,93.03
2023-04-24T05:35:34.465Z,92.91
2023-04-24T05:36:36.322Z,92.70
2023-04-24T05:37:38.078Z,92.80
2023-04-24T05:38:39.772Z,92.41
2023-04-24T05:39:43.075Z,92.53
2023-04-24T05:40:45.303Z,92.21
2023-04-24T05:41:47.237Z,91.46
2023-04-24T05:42:49.004Z,91.70
2023-04-24T05:43:50.966Z,92.12
2023-04-24T05:44:53.692Z,91.86
2023-04-24T05:45:56.502Z,92.01
2023-04-24T05:46:58.480Z,91.60
2023-04-24T05:48:00.418Z,91.74
2023-04-24T05:49:02.410Z,91.67
2023-04-24T05:50:04.379Z,91.77
2023-04-24T05:51:06.265Z,91.92
2023-04-24T05:52:11.237Z,92.23
2023-04-24T05:53:13.019Z,92.84
2023-04-24T05:54:14.872Z,93.39
2023-04-24T05:55:19.684Z,93.47
2023-04-24T05:56:21.695Z,92.84
2023-04-24T05:57:23.492Z,92.95
2023-04-24T05:58:25.254Z,93.26
2023-04-24T05:59:27.568Z,93.39
2023-04-24T06:00:30.043Z,93.67
2023-04-24T06:01:32.728Z,93.87
2023-04-24T06:02:34.676Z,93.70
2023-04-24T06:03:36.656Z,93.87
2023-04-24T06:04:38.750Z,93.82
2023-04-24T06:05:40.962Z,94.23
2023-04-24T06:06:42.675Z,94.38
2023-04-24T06:07:44.664Z,94.42
2023-04-24T06:08:46.749Z,94.45
2023-04-24T06:09:48.493Z,94.66
2023-04-24T06:10:50.830Z,94.63
2023-04-24T06:11:55.538Z,94.60
2023-04-24T06:13:01.688Z,94.54
2023-04-24T06:14:03.499Z,94.30
2023-04-24T06:15:05.522Z,94.29
2023-04-24T06:16:07.677Z,94.15
2023-04-24T06:17:09.525Z,94.15
2023-04-24T06:18:11.977Z,94.58
2023-04-24T06:19:13.935Z,94.17
2023-04-24T06:20:15.850Z,93.79
2023-04-24T06:21:17.827Z,93.81
2023-04-24T06:22:19.645Z,93.58
2023-04-24T06:23:21.523Z,93.89
2023-04-24T06:24:23.328Z,94.00
2023-04-24T06:25:28.159Z,93.82
2023-04-24T06:26:29.986Z,94.02
2023-04-24T06:27:31.756Z,93.98
2023-04-24T06:28:33.590Z,94.13
2023-04-24T06:29:35.597Z,94.45
2023-04-24T06:30:37.385Z,94.56
2023-04-24T06:31:39.282Z,94.70
2023-04-24T06:32:41.173Z,94.65
2023-04-24T06:33:42.968Z,94.58
2023-04-24T06:34:45.346Z,94.43
2023-04-24T06:35:47.214Z,94.86
2023-04-24T06:36:49.173Z,94.51
2023-04-24T06:37:51.487Z,94.56
2023-04-24T06:38:53.340Z,94.31
2023-04-24T06:39:55.140Z,94.47
2023-04-24T06:40:56.969Z,94.60
2023-04-24T06:41:58.822Z,94.20
2023-04-24T06:43:01.443Z,94.54
2023-04-24T06:44:03.317Z,94.15
2023-04-24T06:45:06.565Z,93.74
2023-04-24T06:46:08.456Z,93.84
2023-04-24T06:47:14.903Z,94.00
2023-04-24T06:48:16.745Z,94.09
2023-04-24T06:49:18.663Z,93.50
2023-04-24T06:50:20.517Z,93.71
2023-04-24T06:51:23.662Z,93.86
2023-04-24T06:52:25.967Z,93.49
2023-04-24T06:53:28.672Z,93.00
2023-04-24T06:54:30.971Z,92.74
2023-04-24T06:55:32.754Z,92.84
2023-04-24T06:56:35.434Z,92.12
2023-04-24T06:57:37.676Z,92.84
2023-04-24T06:58:39.674Z,92.58
2023-04-24T06:59:41.892Z,93.47
2023-04-24T07:00:43.803Z,93.28
2023-04-24T07:01:45.769Z,93.09
2023-04-24T07:02:47.760Z,93.08
2023-04-24T07:03:49.877Z,92.91
2023-04-24T07:04:51.909Z,92.73
2023-04-24T07:05:54.566Z,92.55
2023-04-24T07:06:59.206Z,92.45
2023-04-24T07:08:01.746Z,92.00
2023-04-24T07:09:04.606Z,91.63
2023-04-24T07:10:06.895Z,92.12
2023-04-24T07:11:08.626Z,91.45
2023-04-24T07:12:11.870Z,91.70
2023-04-24T07:13:13.681Z,91.83
2023-04-24T07:14:15.491Z,92.54
2023-04-24T07:15:17.635Z,92.95
2023-04-24T07:16:19.499Z,92.48
2023-04-24T07:17:21.343Z,92.62
2023-04-24T07:18:23.274Z,91.92
2023-04-24T07:19:25.255Z,91.55
2023-04-24T07:20:27.307Z,91.21
2023-04-24T07:21:29.349Z,91.15
2023-04-24T07:22:31.134Z,90.88
2023-04-24T07:23:32.899Z,90.94
2023-04-24T07:24:34.912Z,90.26
2023-04-24T07:25:36.793Z,90.05
2023-04-24T07:26:40.264Z,90.00
2023-04-24T07:27:42.121Z,89.41
2023-04-24T07:28:44.111Z,89.44
2023-04-24T07:29:45.968Z,89.36
2023-04-24T07:30:48.085Z,89.50
2023-04-24T07:31:49.935Z,89.36
2023-04-24T07:32:51.755Z,89.00
2023-04-24T07:33:53.634Z,88.88
2023-04-24T07:34:55.508Z,89.06
2023-04-24T07:35:57.722Z,88.57
2023-04-24T07:36:59.586Z,88.22
2023-04-24T07:38:01.434Z,88.27
2023-04-24T07:39:03.729Z,87.16
2023-04-24T07:40:05.870Z,87.02
2023-04-24T07:41:07.695Z,87.74
2023-04-24T07:42:09.683Z,88.58
2023-04-24T07:43:11.862Z,89.05
2023-04-24T07:44:13.691Z,89.16
2023-04-24T07:45:15.882Z,88.38
2023-04-24T07:46:18.502Z,88.72
2023-04-24T07:47:20.330Z,88.46
2023-04-24T07:48:24.360Z,88.20
2023-04-24T07:49:26.180Z,87.59
2023-04-24T07:50:27.967Z,88.20
2023-04-24T07:51:30.259Z,88.18
2023-04-24T07:52:32.032Z,88.73
2023-04-24T07:53:34.380Z,89.69
2023-04-24T07:54:36.122Z,89.91
2023-04-24T07:55:37.974Z,89.89
2023-04-24T07:56:42.585Z,89.98
2023-04-24T07:57:44.516Z,90.06
2023-04-24T07:58:46.352Z,90.67
2023-04-24T07:59:48.105Z,90.34
2023-04-24T08:00:49.973Z,89.80
2023-04-24T08:01:51.668Z,88.78
2023-04-24T08:02:53.630Z,89.23
2023-04-24T08:03:55.851Z,89.46
2023-04-24T08:05:00.144Z,88.77
2023-04-24T08:06:02.586Z,88.96
2023-04-24T08:07:04.562Z,88.61
2023-04-24T08:08:06.331Z,88.73
2023-04-24T08:09:08.740Z,88.79
2023-04-24T08:10:13.459Z,88.66
2023-04-24T08:11:15.454Z,88.28
2023-04-24T08:12:17.187Z,88.31
2023-04-24T08:13:18.937Z,88.74
2023-04-24T08:14:22.384Z,89.33
2023-04-24T08:15:24.284Z,88.98
2023-04-24T08:16:26.149Z,89.51
2023-04-24T08:17:28.236Z,89.82
2023-04-24T08:18:30.130Z,90.40
2023-04-24T08:19:32.569Z,90.64
2023-04-24T08:20:34.403Z,90.83
2023-04-24T08:21:36.262Z,90.97
2023-04-24T08:22:38.108Z,91.61
2023-04-24T08:23:39.851Z,91.52
2023-04-24T08:24:43.422Z,90.85
2023-04-24T08:25:45.414Z,90.48
2023-04-24T08:26:48.477Z,90.40
2023-04-24T08:27:50.254Z,90.00
2023-04-24T08:28:52.032Z,90.03
2023-04-24T08:29:56.651Z,90.23
2023-04-24T08:30:58.431Z,89.97
2023-04-24T08:32:00.363Z,89.59
2023-04-24T08:33:02.305Z,89.41
2023-04-24T08:34:04.216Z,89.17
2023-04-24T08:35:06.435Z,89.07
2023-04-24T08:36:08.540Z,88.97
2023-04-24T08:37:10.680Z,88.81
2023-04-24T08:38:12.562Z,88.78
2023-04-24T08:39:14.493Z,89.09
2023-04-24T08:40:17.086Z,88.97
2023-04-24T08:41:19.972Z,89.07
2023-04-24T08:42:22.153Z,89.46
2023-04-24T08:43:25.095Z,89.35
2023-04-24T08:44:26.884Z,88.40
2023-04-24T08:45:28.726Z,88.52
2023-04-24T08:46:31.746Z,88.61
2023-04-24T08:47:34.359Z,89.01
2023-04-24T08:48:36.370Z,88.53
2023-04-24T08:49:38.906Z,88.18
2023-04-24T08:50:44.006Z,87.96
2023-04-24T08:51:48.267Z,88.15
2023-04-24T08:52:58.198Z,87.83
2023-04-24T08:53:59.979Z,87.57
2023-04-24T08:55:02.682Z,87.68
2023-04-24T08:56:06.522Z,87.21
2023-04-24T08:57:09.154Z,87.20
2023-04-24T08:58:11.714Z,86.49
2023-04-24T08:59:14.002Z,86.66
2023-04-24T09:00:16.010Z,86.84
2023-04-24T09:01:18.634Z,87.13
2023-04-24T09:02:21.143Z,86.63
2023-04-24T09:03:23.402Z,87.30
2023-04-24T09:04:26.569Z,86.72
2023-04-24T09:05:29.433Z,86.82
2023-04-24T09:06:33.682Z,86.90
2023-04-24T09:07:37.064Z,86.81
2023-04-24T09:08:41.158Z,86.12
2023-04-24T09:09:43.524Z,86.06
2023-04-24T09:10:45.942Z,86.12
2023-04-24T09:11:48.562Z,86.29
2023-04-24T09:12:51.714Z,87.20
2023-04-24T09:13:54.680Z,88.07
2023-04-24T09:14:57.749Z,88.72
2023-04-24T09:16:01.394Z,88.88
2023-04-24T09:17:03.544Z,89.40
2023-04-24T09:18:06.114Z,89.44
2023-04-24T09:19:08.026Z,89.20
2023-04-24T09:20:09.852Z,89.24
2023-04-24T09:21:11.683Z,88.86
2023-04-24T09:22:14.549Z,88.95
2023-04-24T09:23:19.577Z,88.32
2023-04-24T09:24:24.011Z,88.14
2023-04-24T09:25:34.912Z,88.02
2023-04-24T09:26:37.460Z,88.20
2023-04-24T09:27:43.311Z,87.90
2023-04-24T09:28:46.602Z,88.24
2023-04-24T09:29:57.908Z,88.46
2023-04-24T09:31:03.525Z,88.53
2023-04-24T09:32:23.116Z,88.84
2023-04-24T09:33:25.365Z,88.84
2023-04-24T09:34:28.236Z,89.48
2023-04-24T09:35:29.987Z,89.13
2023-04-24T09:36:34.582Z,88.87
2023-04-24T09:37:38.060Z,88.87
2023-04-24T09:38:40.498Z,88.17
2023-04-24T09:39:42.628Z,87.95
2023-04-24T09:40:44.819Z,88.23
2023-04-24T09:41:58.636Z,88.29
2023-04-24T09:43:02.378Z,87.63
2023-04-24T09:44:16.510Z,87.21
2023-04-24T09:45:18.457Z,87.21
2023-04-24T09:46:20.307Z,87.08
2023-04-24T09:47:22.365Z,86.88
2023-04-24T09:48:33.796Z,87.65
2023-04-24T09:49:37.100Z,87.19
2023-04-24T09:50:38.992Z,87.27
2023-04-24T09:51:42.542Z,88.17
2023-04-24T09:52:45.723Z,89.22
2023-04-24T09:53:48.638Z,89.59
2023-04-24T09:54:54.387Z,89.86
2023-04-24T09:55:56.333Z,88.71
2023-04-24T09:56:58.286Z,87.56
2023-04-24T09:58:06.311Z,87.64
2023-04-24T09:59:08.759Z,87.36
2023-04-24T10:00:11.197Z,87.44
2023-04-24T10:01:13.874Z,86.63
2023-04-24T10:02:20.211Z,87.11
2023-04-24T10:03:22.360Z,88.66
2023-04-24T10:04:25.716Z,87.79
2023-04-24T10:05:29.006Z,87.73
2023-04-24T10:06:35.174Z,86.75
2023-04-24T10:07:38.790Z,86.64
2023-04-24T10:08:40.625Z,86.82
2023-04-24T10:09:43.166Z,88.54
2023-04-24T10:10:46.428Z,88.59
2023-04-24T10:11:51.236Z,88.93
2023-04-24T10:12:54.050Z,88.98
2023-04-24T10:13:57.194Z,86.99
2023-04-24T10:14:59.761Z,85.38
2023-04-24T10:16:02.192Z,85.10
2023-04-24T10:17:04.323Z,85.64
2023-04-24T10:18:07.802Z,86.45
2023-04-24T10:19:09.715Z,86.33
2023-04-24T10:20:11.747Z,86.15
2023-04-24T10:21:13.856Z,85.84
2023-04-24T10:22:17.040Z,85.17
2023-04-24T10:23:20.550Z,84.45
2023-04-24T10:24:22.408Z,84.27
2023-04-24T10:25:25.561Z,84.77
2023-04-24T10:26:28.008Z,84.37
2023-04-24T10:27:32.175Z,84.84
2023-04-24T10:28:35.518Z,85.33
2023-04-24T10:29:37.874Z,85.62
2023-04-24T10:30:40.510Z,85.72
2023-04-24T10:31:43.157Z,86.45
2023-04-24T10:32:45.192Z,86.18
2023-04-24T10:33:47.363Z,86.13
2023-04-24T10:34:49.215Z,86.42
2023-04-24T10:35:52.306Z,86.87
2023-04-24T10:36:56.527Z,87.61
2023-04-24T10:38:02.893Z,87.53
2023-04-24T10:39:07.896Z,87.82
2023-04-24T10:40:11.567Z,86.92
2023-04-24T10:41:20.854Z,85.04
2023-04-24T10:42:23.366Z,85.36
2023-04-24T10:43:25.184Z,85.22
2023-04-24T10:44:27.907Z,86.20
2023-04-24T10:45:29.885Z,86.08
2023-04-24T10:46:32.246Z,85.57
2023-04-24T10:47:43.769Z,85.27
2023-04-24T10:48:53.350Z,85.04
2023-04-24T10:49:55.194Z,84.12
2023-04-24T10:50:57.193Z,85.35
2023-04-24T10:52:03.755Z,85.35
2023-04-24T10:53:09.414Z,85.11
2023-04-24T10:54:29.940Z,85.06
2023-04-24T10:55:42.645Z,84.75
2023-04-24T10:56:44.448Z,84.08
2023-04-24T10:58:13.128Z,84.44
2023-04-24T10:59:25.036Z,83.82
2023-04-24T11:00:29.653Z,83.47
2023-04-24T11:01:33.612Z,83.41
2023-04-24T11:02:39.756Z,83.64
2023-04-24T11:03:52.043Z,82.23
2023-04-24T11:04:54.111Z,83.12
2023-04-24T11:06:00.365Z,82.94
2023-04-24T11:07:02.426Z,82.60
2023-04-24T11:08:17.906Z,81.12
2023-04-24T11:09:22.161Z,80.99
2023-04-24T11:10:28.108Z,79.88
2023-04-24T11:11:31.040Z,80.48
2023-04-24T11:12:36.364Z,80.78
2023-04-24T11:13:56.135Z,79.60
2023-04-24T11:14:58.441Z,77.76
2023-04-24T11:16:18.888Z,78.18
2023-04-24T11:17:31.826Z,77.52
2023-04-24T11:18:40.577Z,78.13
2023-04-24T11:19:42.473Z,80.68
2023-04-24T11:20:45.140Z,80.29
2023-04-24T11:21:57.036Z,81.78
2023-04-24T11:23:04.546Z,81.54
2023-04-24T11:24:25.027Z,83.02
2023-04-24T11:25:27.028Z,81.81
2023-04-24T11:26:33.667Z,80.86
2023-04-24T11:27:43.433Z,79.89
2023-04-24T11:28:45.943Z,80.26
2023-04-24T11:30:02.307Z,79.98
2023-04-24T11:31:23.278Z,78.48
2023-04-24T11:32:25.188Z,77.29
2023-04-24T11:33:27.085Z,77.72
2023-04-24T11:34:28.820Z,78.78
2023-04-24T11:35:31.844Z,77.95
2023-04-24T11:36:33.643Z,78.21
2023-04-24T11:37:39.670Z,77.25
2023-04-24T11:38:42.061Z,77.96
2023-04-24T11:39:43.819Z,77.77
2023-04-24T11:40:45.936Z,78.42
2023-04-24T11:41:49.731Z,77.78
2023-04-24T11:42:52.343Z,78.05
2023-04-24T11:43:55.900Z,78.59
2023-04-24T11:44:58.860Z,79.39
2023-04-24T11:46:01.608Z,78.04
2023-04-24T11:47:03.457Z,76.14
2023-04-24T11:48:05.397Z,76.59
2023-04-24T11:49:07.962Z,77.84
2023-04-24T11:50:11.503Z,79.01
2023-04-24T11:51:13.982Z,79.19
2023-04-24T11:52:17.142Z,77.42
2023-04-24T11:53:23.254Z,78.23
2023-04-24T11:54:25.772Z,78.16
2023-04-24T11:55:28.596Z,79.44
2023-04-24T11:56:30.766Z,79.30
2023-04-24T11:57:37.666Z,79.42
2023-04-24T11:58:40.768Z,79.48
2023-04-24T11:59:42.785Z,80.20
2023-04-24T12:00:47.079Z,80.46
2023-04-24T12:01:50.069Z,80.53
2023-04-24T12:02:52.859Z,80.57
2023-04-24T12:04:01.577Z,80.31
2023-04-24T12:05:04.141Z,80.05
2023-04-24T12:06:09.047Z,78.46
2023-04-24T12:07:11.124Z,79.06
2023-04-24T12:08:12.961Z,79.75
2023-04-24T12:09:18.537Z,79.82
2023-04-24T12:10:24.241Z,79.89
2023-04-24T12:11:27.074Z,79.42
2023-04-24T12:12:29.244Z,79.91
2023-04-24T12:13:31.897Z,79.78
2023-04-24T12:14:33.755Z,79.54
2023-04-24T12:15:35.740Z,79.77
2023-04-24T12:16:37.752Z,79.77
2023-04-24T12:17:42.629Z,79.47
2023-04-24T12:18:45.319Z,78.00
2023-04-24T12:19:48.258Z,78.39
2023-04-24T12:20:50.169Z,78.65
2023-04-24T12:22:06.446Z,78.81
2023-04-24T12:23:08.274Z,79.12
2023-04-24T12:24:10.039Z,80.05
2023-04-24T12:25:11.827Z,79.60
2023-04-24T12:26:17.481Z,80.04
2023-04-24T12:27:22.264Z,79.86
2023-04-24T12:28:24.047Z,80.08
2023-04-24T12:29:26.040Z,80.36
2023-04-24T12:30:29.764Z,80.47
2023-04-24T12:31:34.875Z,80.91
2023-04-24T12:32:36.753Z,81.28
2023-04-24T12:33:39.931Z,81.74
2023-04-24T12:34:44.978Z,81.89
2023-04-24T12:35:46.996Z,82.87
2023-04-24T12:36:49.862Z,80.36
2023-04-24T12:37:51.803Z,78.34
2023-04-24T12:38:56.671Z,78.26
2023-04-24T12:40:07.418Z,77.61
2023-04-24T12:41:10.359Z,77.64
2023-04-24T12:42:12.835Z,76.61
2023-04-24T12:43:19.080Z,75.46
2023-04-24T12:44:21.163Z,76.47
2023-04-24T12:45:25.095Z,77.69
2023-04-24T12:46:27.072Z,77.17
2023-04-24T12:47:29.490Z,76.88
2023-04-24T12:48:32.022Z,76.96
2023-04-24T12:49:34.453Z,77.29
2023-04-24T12:50:36.209Z,77.59
2023-04-24T12:51:37.959Z,75.88
2023-04-24T12:52:40.638Z,76.28
2023-04-24T12:53:42.812Z,75.15
2023-04-24T12:54:45.590Z,74.75
2023-04-24T12:55:53.638Z,75.77
2023-04-24T12:56:55.455Z,76.19
2023-04-24T12:57:57.459Z,76.66
2023-04-24T12:58:59.273Z,75.94
2023-04-24T13:00:01.073Z,76.44
2023-04-24T13:01:02.962Z,75.78
2023-04-24T13:02:04.856Z,75.99
2023-04-24T13:03:06.823Z,76.32
2023-04-24T13:04:08.883Z,76.32
2023-04-24T13:05:12.852Z,76.35
2023-04-24T13:06:14.641Z,76.75
2023-04-24T13:07:17.102Z,77.33
2023-04-24T13:08:18.981Z,79.45
2023-04-24T13:09:20.693Z,81.47
2023-04-24T13:10:22.426Z,81.54
2023-04-24T13:11:24.207Z,81.76
2023-04-24T13:12:26.848Z,82.30
2023-04-24T13:13:29.889Z,82.05
2023-04-24T13:14:31.787Z,81.43
2023-04-24T13:15:33.665Z,81.28
2023-04-24T13:16:36.006Z,81.86
2023-04-24T13:17:38.041Z,83.12
2023-04-24T13:18:39.909Z,83.01
2023-04-24T13:19:42.693Z,82.73
2023-04-24T13:20:45.291Z,82.28
2023-04-24T13:21:47.203Z,82.69
2023-04-24T13:22:49.931Z,82.59
2023-04-24T13:23:53.331Z,83.00
2023-04-24T13:24:55.220Z,82.78
2023-04-24T13:25:59.656Z,82.95
2023-04-24T13:27:02.016Z,83.31
2023-04-24T13:28:03.837Z,83.85
2023-04-24T13:29:05.644Z,84.23
2023-04-24T13:30:07.897Z,84.82